createdAt,value
2022-12-08T00:02:08.720Z,15.03
2022-12-08T00:04:39.787Z,13.08
2022-12-08T00:07:28.375Z,13.10
2022-12-08T00:09:57.646Z,13.15
2022-12-08T00:12:26.969Z,12.53
2022-12-08T00:14:56.186Z,12.25
2022-12-08T00:17:25.445Z,11.28
2022-12-08T00:19:54.626Z,10.70
2022-12-08T00:22:23.877Z,10.28
2022-12-08T00:24:53.074Z,9.83
2022-12-08T00:27:22.421Z,9.33
2022-12-08T00:29:51.650Z,9.40
2022-12-08T00:32:21.072Z,8.18
2022-12-08T00:34:50.428Z,7.90
2022-12-08T00:37:19.683Z,7.58
2022-12-08T00:39:48.921Z,7.15
2022-12-08T00:42:18.137Z,5.90
2022-12-08T00:44:48.724Z,6.22
2022-12-08T00:47:22.221Z,5.75
2022-12-08T00:49:48.936Z,4.85
2022-12-08T00:52:18.123Z,4.67
2022-12-08T00:54:47.372Z,4.25
2022-12-08T00:57:16.571Z,3.70
2022-12-08T00:59:45.808Z,3.58
2022-12-08T01:02:15.036Z,3.10
2022-12-08T01:04:44.391Z,3.15
2022-12-08T01:07:13.617Z,3.87
2022-12-08T01:09:42.889Z,3.00
2022-12-08T01:12:12.095Z,2.70
2022-12-08T01:14:41.383Z,2.83
2022-12-08T01:17:10.777Z,2.50
2022-12-08T01:19:40.203Z,3.98
2022-12-08T01:22:09.415Z,2.30
2022-12-08T01:24:38.623Z,2.50
2022-12-08T01:27:08.105Z,3.00
2022-12-08T01:29:37.389Z,3.40
2022-12-08T01:32:06.682Z,1.98
2022-12-08T01:34:36.168Z,1.90
2022-12-08T01:37:05.490Z,2.00
2022-12-08T01:39:35.677Z,1.92
2022-12-08T01:42:05.167Z,2.30
2022-12-08T01:44:40.704Z,1.90
2022-12-08T01:47:10.476Z,2.25
2022-12-08T01:49:39.684Z,1.80
2022-12-08T01:52:38.041Z,2.35
2022-12-08T01:55:13.668Z,2.62
2022-12-08T01:57:45.220Z,2.67
2022-12-08T02:00:17.253Z,2.30
2022-12-08T02:03:01.413Z,2.35
2022-12-08T02:05:33.456Z,2.10
2022-12-08T02:08:06.849Z,2.10
2022-12-08T02:10:39.139Z,1.77
2022-12-08T02:13:10.743Z,2.05
2022-12-08T02:16:16.888Z,1.87
2022-12-08T02:19:30.769Z,1.70
2022-12-08T02:22:11.621Z,1.37
2022-12-08T02:24:46.855Z,1.50
2022-12-08T02:27:35.666Z,1.40
2022-12-08T02:30:08.164Z,2.00
2022-12-08T02:35:36.114Z,2.00
2022-12-08T02:38:08.495Z,1.80
2022-12-08T02:40:52.346Z,1.85
2022-12-08T02:43:27.495Z,2.00
2022-12-08T02:46:00.292Z,1.65
2022-12-08T02:48:30.323Z,1.60
2022-12-08T02:50:59.543Z,1.62
2022-12-08T02:53:33.260Z,1.47
2022-12-08T02:56:05.805Z,1.90
2022-12-08T03:01:27.008Z,1.45
2022-12-08T03:04:05.077Z,1.60
2022-12-08T03:06:52.187Z,1.90
2022-12-08T03:09:27.385Z,2.30
2022-12-08T03:12:02.654Z,2.87
2022-12-08T03:14:33.227Z,2.62
2022-12-08T03:17:02.614Z,2.92
2022-12-08T03:19:36.711Z,3.22
2022-12-08T03:22:07.703Z,3.42
2022-12-08T03:24:39.604Z,3.50
2022-12-08T03:27:18.840Z,3.33
2022-12-08T03:29:54.403Z,3.20
2022-12-08T03:32:51.026Z,2.72
2022-12-08T03:35:23.391Z,2.60
2022-12-08T03:37:52.692Z,3.08
2022-12-08T03:40:22.267Z,3.10
2022-12-08T03:42:51.520Z,2.70
2022-12-08T03:45:21.587Z,3.47
2022-12-08T03:47:50.893Z,3.12
2022-12-08T03:50:20.110Z,3.52
2022-12-08T03:52:49.676Z,3.22
2022-12-08T03:55:18.986Z,3.55
2022-12-08T03:57:48.254Z,3.37
2022-12-08T04:00:18.172Z,3.20
2022-12-08T04:02:47.447Z,2.83
2022-12-08T04:05:16.743Z,2.33
2022-12-08T04:07:46.067Z,1.67
2022-12-08T04:10:15.466Z,1.67
2022-12-08T04:12:44.722Z,1.50
2022-12-08T04:15:14.000Z,1.62
2022-12-08T04:17:43.520Z,1.75
2022-12-08T04:20:13.239Z,1.10
2022-12-08T04:22:42.506Z,1.70
2022-12-08T04:25:11.888Z,1.62
2022-12-08T04:27:41.146Z,1.60
2022-12-08T04:30:11.018Z,1.70
2022-12-08T04:32:45.778Z,1.87
2022-12-08T04:35:11.345Z,2.20
2022-12-08T04:37:40.570Z,2.27
2022-12-08T04:40:10.622Z,2.65
2022-12-08T04:42:40.222Z,2.75
2022-12-08T04:45:10.144Z,2.40
2022-12-08T04:47:40.560Z,2.12
2022-12-08T04:50:10.766Z,2.40
2022-12-08T04:52:40.489Z,2.10
2022-12-08T04:55:10.112Z,2.35
2022-12-08T04:57:39.373Z,2.08
2022-12-08T05:00:09.092Z,2.27
2022-12-08T05:02:38.342Z,2.77
2022-12-08T05:05:08.447Z,3.22
2022-12-08T05:07:37.799Z,3.40
2022-12-08T05:10:08.284Z,3.00
2022-12-08T05:12:37.521Z,3.15
2022-12-08T05:15:07.767Z,3.62
2022-12-08T05:17:37.014Z,3.50
2022-12-08T05:20:08.760Z,3.75
2022-12-08T05:22:38.067Z,3.58
2022-12-08T05:25:08.063Z,3.40
2022-12-08T05:27:39.060Z,3.90
2022-12-08T05:30:08.864Z,4.40
2022-12-08T05:32:38.089Z,4.05
2022-12-08T05:35:08.349Z,4.25
2022-12-08T05:37:37.553Z,4.20
2022-12-08T05:40:08.045Z,4.25
2022-12-08T05:42:37.458Z,3.60
2022-12-08T05:45:07.390Z,3.72
2022-12-08T05:47:36.620Z,3.67
2022-12-08T05:50:07.371Z,4.60
2022-12-08T05:52:36.988Z,4.60
2022-12-08T05:55:06.908Z,4.20
2022-12-08T05:57:36.514Z,4.55
2022-12-08T06:00:07.610Z,3.70
2022-12-08T06:02:38.758Z,3.90
2022-12-08T06:05:08.914Z,4.30
2022-12-08T06:07:38.202Z,4.80
2022-12-08T06:10:08.695Z,4.97
2022-12-08T06:12:37.986Z,5.40
2022-12-08T06:15:07.917Z,5.00
2022-12-08T06:17:37.204Z,4.78
2022-12-08T06:20:08.067Z,4.58
2022-12-08T06:22:37.800Z,4.30
2022-12-08T06:25:10.291Z,4.72
2022-12-08T06:27:39.998Z,4.55
2022-12-08T06:30:09.876Z,4.83
2022-12-08T06:32:39.115Z,5.12
2022-12-08T06:35:09.014Z,5.80
2022-12-08T06:37:38.434Z,5.42
2022-12-08T06:40:08.948Z,5.42
2022-12-08T06:42:43.937Z,5.58
2022-12-08T06:45:15.871Z,6.92
2022-12-08T06:47:45.147Z,6.80
2022-12-08T06:50:15.136Z,6.75
2022-12-08T06:52:56.900Z,5.97
2022-12-08T06:55:42.713Z,6.35
2022-12-08T06:57:51.164Z,3.80
2022-12-08T07:00:20.050Z,3.02
2022-12-08T07:02:49.754Z,2.47
2022-12-08T07:05:19.164Z,2.52
2022-12-08T07:07:48.500Z,2.20
2022-12-08T07:10:17.892Z,2.42
2022-12-08T07:12:47.164Z,2.85
2022-12-08T07:15:16.510Z,3.05
2022-12-08T07:17:45.773Z,3.40
2022-12-08T07:20:15.321Z,3.58
2022-12-08T07:22:49.993Z,3.62
2022-12-08T07:25:20.223Z,3.87
2022-12-08T07:27:51.636Z,3.42
2022-12-08T07:30:21.074Z,3.67
2022-12-08T07:32:50.319Z,3.55
2022-12-08T07:35:19.605Z,2.75
2022-12-08T07:37:48.995Z,3.37
2022-12-08T07:40:18.288Z,3.20
2022-12-08T07:42:47.533Z,3.08
2022-12-08T07:45:16.882Z,3.83
2022-12-08T07:47:46.157Z,4.30
2022-12-08T07:50:15.434Z,3.40
2022-12-08T07:52:44.700Z,3.60
2022-12-08T07:55:13.922Z,3.98
2022-12-08T07:57:43.345Z,4.83
2022-12-08T08:00:13.359Z,5.42
2022-12-08T08:02:43.214Z,5.80
2022-12-08T08:05:13.102Z,5.50
2022-12-08T08:07:43.800Z,5.30
2022-12-08T08:10:13.202Z,4.72
2022-12-08T08:12:42.432Z,4.50
2022-12-08T08:15:11.732Z,4.60
2022-12-08T08:17:41.102Z,4.00
2022-12-08T08:20:11.322Z,3.70
2022-12-08T08:22:40.547Z,3.70
2022-12-08T08:25:10.290Z,3.75
2022-12-08T08:27:39.583Z,3.70
2022-12-08T08:30:15.232Z,3.90
2022-12-08T08:32:42.203Z,4.15
2022-12-08T08:35:11.597Z,4.20
2022-12-08T08:37:44.337Z,4.40
2022-12-08T08:40:12.153Z,5.25
2022-12-08T08:42:41.494Z,4.92
2022-12-08T08:45:11.372Z,4.80
2022-12-08T08:47:40.605Z,5.00
2022-12-08T08:50:10.105Z,4.90
2022-12-08T08:52:39.424Z,5.33
2022-12-08T08:55:08.997Z,5.00
2022-12-08T08:57:38.317Z,4.95
2022-12-08T09:00:10.180Z,4.12
2022-12-08T09:02:39.988Z,4.45
2022-12-08T09:05:09.985Z,4.90
2022-12-08T09:07:39.358Z,4.90
2022-12-08T09:10:09.716Z,5.00
2022-12-08T09:12:38.956Z,4.60
2022-12-08T09:15:08.746Z,5.30
2022-12-08T09:17:38.572Z,4.45
2022-12-08T09:20:08.779Z,4.30
2022-12-08T09:22:37.995Z,4.35
2022-12-08T09:25:07.798Z,4.50
2022-12-08T09:27:37.010Z,4.28
2022-12-08T09:30:07.666Z,4.30
2022-12-08T09:32:37.115Z,5.47
2022-12-08T09:35:06.593Z,4.92
2022-12-08T09:37:35.807Z,5.20
2022-12-08T09:40:07.415Z,5.10
2022-12-08T09:42:40.125Z,5.45
2022-12-08T09:45:14.106Z,5.75
2022-12-08T09:47:55.196Z,5.40
2022-12-08T09:50:30.510Z,5.05
2022-12-08T09:53:03.672Z,5.03
2022-12-08T09:55:53.963Z,5.08
2022-12-08T09:58:59.735Z,5.78
2022-12-08T10:01:34.036Z,5.15
2022-12-08T10:04:04.301Z,4.75
2022-12-08T10:06:39.864Z,5.20
2022-12-08T10:09:31.782Z,5.20
2022-12-08T10:12:19.155Z,5.05
2022-12-08T10:14:51.809Z,4.95
2022-12-08T10:17:26.881Z,5.33
2022-12-08T10:20:01.691Z,5.33
2022-12-08T10:22:39.838Z,4.67
2022-12-08T10:25:24.578Z,2.50
2022-12-08T10:27:55.394Z,2.00
2022-12-08T10:30:24.677Z,2.10
2022-12-08T10:32:55.421Z,2.00
2022-12-08T10:35:25.619Z,2.22
2022-12-08T10:38:05.280Z,2.10
2022-12-08T10:40:45.306Z,2.50
2022-12-08T10:43:12.744Z,2.45
2022-12-08T10:45:43.300Z,2.70
2022-12-08T10:48:20.513Z,2.90
2022-12-08T10:50:52.899Z,2.70
2022-12-08T10:53:25.103Z,3.10
2022-12-08T10:56:06.692Z,3.10
2022-12-08T10:58:43.260Z,2.87
2022-12-08T11:01:24.601Z,2.65
2022-12-08T11:03:56.710Z,3.15
2022-12-08T11:06:33.907Z,2.92
2022-12-08T11:09:06.049Z,2.87
2022-12-08T11:11:56.752Z,3.15
2022-12-08T11:14:29.307Z,3.25
2022-12-08T11:19:43.627Z,3.60
2022-12-08T11:22:33.455Z,4.28
2022-12-08T11:25:11.586Z,4.95
2022-12-08T11:27:46.752Z,6.37
2022-12-08T11:30:19.241Z,5.72
2022-12-08T11:32:51.189Z,5.97
2022-12-08T11:35:28.330Z,6.50
2022-12-08T11:38:19.760Z,6.15
2022-12-08T11:40:34.869Z,6.83
2022-12-08T11:43:19.184Z,5.40
2022-12-08T11:45:51.356Z,4.35
2022-12-08T11:48:23.842Z,4.62
2022-12-08T11:50:56.195Z,3.55
2022-12-08T11:53:49.501Z,6.55
2022-12-08T11:56:21.495Z,10.30
2022-12-08T11:59:02.518Z,7.40
2022-12-08T12:01:31.768Z,7.20
2022-12-08T12:04:04.171Z,7.37
2022-12-08T12:06:54.410Z,7.65
2022-12-08T12:09:28.703Z,6.30
2022-12-08T12:12:19.315Z,6.20
2022-12-08T12:14:54.542Z,5.78
2022-12-08T12:17:38.923Z,6.35
2022-12-08T12:20:25.973Z,6.10
2022-12-08T12:23:19.411Z,5.58
2022-12-08T12:26:00.123Z,5.92
2022-12-08T12:28:32.243Z,5.70
2022-12-08T12:31:13.132Z,5.47
2022-12-08T12:33:44.450Z,6.37
2022-12-08T12:36:14.938Z,6.15
2022-12-08T12:39:08.805Z,7.12
2022-12-08T12:41:55.647Z,6.37
2022-12-08T12:44:28.395Z,8.28
2022-12-08T12:47:02.278Z,7.10
2022-12-08T12:49:46.196Z,6.50
2022-12-08T12:55:15.500Z,20.75
2022-12-08T12:57:56.926Z,11.22
2022-12-08T13:00:28.281Z,9.45
2022-12-08T13:02:59.386Z,8.80
2022-12-08T13:05:34.028Z,9.65
2022-12-08T13:08:08.368Z,7.45
2022-12-08T13:10:41.259Z,10.85
2022-12-08T13:13:19.309Z,8.23
2022-12-08T13:15:54.109Z,10.08
2022-12-08T13:18:50.435Z,25.20
2022-12-08T13:21:23.971Z,14.75
2022-12-08T13:24:14.312Z,17.37
2022-12-08T13:26:47.961Z,9.75
2022-12-08T13:29:26.880Z,9.93
2022-12-08T13:32:03.634Z,8.50
2022-12-08T13:34:54.379Z,5.53
2022-12-08T13:37:39.733Z,3.60
2022-12-08T13:40:13.192Z,3.58
2022-12-08T13:42:46.995Z,2.90
2022-12-08T13:46:10.815Z,2.87
2022-12-08T13:48:56.242Z,3.52
2022-12-08T13:54:45.506Z,5.65
2022-12-08T13:58:46.314Z,3.80
2022-12-08T14:01:23.515Z,5.97
2022-12-08T14:06:33.999Z,4.25
2022-12-08T14:09:10.742Z,4.10
2022-12-08T14:11:39.518Z,3.60
2022-12-08T14:14:32.607Z,3.65
2022-12-08T14:16:54.212Z,3.60
2022-12-08T14:19:28.590Z,4.30
2022-12-08T14:22:01.797Z,4.47
2022-12-08T14:24:36.160Z,4.40
2022-12-08T14:27:06.146Z,4.50
2022-12-08T14:29:52.555Z,6.20
2022-12-08T14:32:28.160Z,10.10
2022-12-08T14:35:09.395Z,24.05
2022-12-08T14:37:47.180Z,12.55
2022-12-08T14:40:39.818Z,11.45
2022-12-08T14:43:15.114Z,9.30
2022-12-08T14:45:47.825Z,9.00
2022-12-08T14:48:34.996Z,16.15
2022-12-08T14:51:23.404Z,8.58
2022-12-08T14:54:05.012Z,6.03
2022-12-08T14:56:46.448Z,5.00
2022-12-08T14:59:21.387Z,4.50
2022-12-08T15:01:53.274Z,3.45
2022-12-08T15:04:30.195Z,3.92
2022-12-08T15:07:01.870Z,5.72
2022-12-08T15:09:37.366Z,4.47
2022-12-08T15:12:09.606Z,5.85
2022-12-08T15:14:57.006Z,13.50
2022-12-08T15:17:43.627Z,10.53
2022-12-08T15:20:45.563Z,4.60
2022-12-08T15:23:27.501Z,8.23
2022-12-08T15:25:57.412Z,8.90
2022-12-08T15:28:30.247Z,8.18
2022-12-08T15:31:00.412Z,9.35
2022-12-08T15:33:29.918Z,5.83
2022-12-08T15:35:59.250Z,6.20
2022-12-08T15:38:29.663Z,8.65
2022-12-08T15:40:59.606Z,8.38
2022-12-08T15:43:28.882Z,7.22
2022-12-08T15:45:59.821Z,8.40
2022-12-08T15:48:30.761Z,8.30
2022-12-08T15:51:00.268Z,10.70
2022-12-08T15:53:30.073Z,9.80
2022-12-08T15:58:53.070Z,10.40
2022-12-08T16:01:02.019Z,7.80
2022-12-08T16:06:50.832Z,7.35
2022-12-08T16:08:49.538Z,8.10
2022-12-08T16:14:03.468Z,6.17
2022-12-08T16:16:30.708Z,6.80
2022-12-08T16:19:00.028Z,6.40
2022-12-08T16:22:04.858Z,7.42
2022-12-08T16:24:06.072Z,7.50
2022-12-08T16:27:50.752Z,10.78
2022-12-08T16:29:05.136Z,8.67
2022-12-08T16:31:34.519Z,11.33
2022-12-08T16:34:03.891Z,10.32
2022-12-08T16:36:33.115Z,8.80
2022-12-08T16:39:02.427Z,7.28
2022-12-08T16:41:49.670Z,7.08
2022-12-08T16:44:19.053Z,9.03
2022-12-08T16:46:48.519Z,7.12
2022-12-08T16:49:17.737Z,7.85
2022-12-08T16:51:47.221Z,8.40
2022-12-08T16:54:16.801Z,7.58
2022-12-08T16:56:46.200Z,8.93
2022-12-08T16:59:15.794Z,10.68
2022-12-08T17:01:45.258Z,12.47
2022-12-08T17:04:31.757Z,17.27
2022-12-08T17:06:46.036Z,17.00
2022-12-08T17:09:15.292Z,15.70
2022-12-08T17:11:45.252Z,16.23
2022-12-08T17:14:15.222Z,18.73
2022-12-08T17:16:45.815Z,21.10
2022-12-08T17:19:15.572Z,24.23
2022-12-08T17:21:45.926Z,22.55
2022-12-08T17:24:20.185Z,23.10
2022-12-08T17:26:46.078Z,23.70
2022-12-08T17:29:15.318Z,24.18
2022-12-08T17:31:44.962Z,26.37
2022-12-08T17:34:14.812Z,29.52
2022-12-08T17:36:44.202Z,50.90
2022-12-08T17:39:18.607Z,35.55
2022-12-08T17:41:46.267Z,34.18
2022-12-08T17:44:18.322Z,35.15
2022-12-08T17:46:52.647Z,37.30
2022-12-08T17:49:25.358Z,34.25
2022-12-08T17:51:57.771Z,29.40
2022-12-08T17:56:58.206Z,40.00
2022-12-08T17:59:29.461Z,29.00
2022-12-08T18:02:00.087Z,31.62
2022-12-08T18:04:30.477Z,34.63
2022-12-08T18:07:01.350Z,31.62
2022-12-08T18:09:32.970Z,35.70
2022-12-08T18:12:02.280Z,33.80
2022-12-08T18:14:31.688Z,27.87
2022-12-08T18:17:01.029Z,27.07
2022-12-08T18:19:30.340Z,27.32
2022-12-08T18:21:59.893Z,27.82
2022-12-08T18:24:29.201Z,27.42
2022-12-08T18:26:58.599Z,28.25
2022-12-08T18:29:28.265Z,27.60
2022-12-08T18:31:57.526Z,28.75
2022-12-08T18:34:26.747Z,28.67
2022-12-08T18:36:56.070Z,28.92
2022-12-08T18:39:28.333Z,31.10
2022-12-08T18:41:59.048Z,30.88
2022-12-08T18:44:28.376Z,31.02
2022-12-08T18:46:57.785Z,33.40
2022-12-08T18:49:27.319Z,32.28
2022-12-08T18:51:56.562Z,30.02
2022-12-08T18:54:37.174Z,29.57
2022-12-08T18:56:57.424Z,31.62
2022-12-08T18:59:27.152Z,30.92
2022-12-08T19:01:57.683Z,33.30
2022-12-08T19:04:29.063Z,31.12
2022-12-08T19:06:58.925Z,32.78
2022-12-08T19:09:29.309Z,30.40
2022-12-08T19:11:58.583Z,30.00
2022-12-08T19:14:30.573Z,29.67
2022-12-08T19:17:00.034Z,27.48
2022-12-08T19:19:29.776Z,27.50
2022-12-08T19:21:59.007Z,25.85
2022-12-08T19:24:28.932Z,23.22
2022-12-08T19:26:58.160Z,21.52
2022-12-08T19:29:27.541Z,23.20
2022-12-08T19:31:57.440Z,20.27
2022-12-08T19:34:26.834Z,19.90
2022-12-08T19:36:56.039Z,20.52
2022-12-08T19:39:43.184Z,22.07
2022-12-08T19:42:35.479Z,20.10
2022-12-08T19:45:08.103Z,12.82
2022-12-08T19:47:37.697Z,19.90
2022-12-08T19:50:27.059Z,18.05
2022-12-08T19:52:56.786Z,15.65
2022-12-08T19:55:26.620Z,19.75
2022-12-08T19:57:57.031Z,17.75
2022-12-08T20:00:26.370Z,18.77
2022-12-08T20:02:58.506Z,19.90
2022-12-08T20:07:57.343Z,23.52
2022-12-08T20:10:34.338Z,18.10
2022-12-08T20:13:26.792Z,16.87
2022-12-08T20:18:54.264Z,17.85
2022-12-08T20:21:27.271Z,19.60
2022-12-08T20:24:05.090Z,22.10
2022-12-08T20:26:35.402Z,23.83
2022-12-08T20:29:05.136Z,26.80
2022-12-08T20:31:37.468Z,27.42
2022-12-08T20:34:11.329Z,30.02
2022-12-08T20:36:41.492Z,31.70
2022-12-08T20:39:19.336Z,31.45
2022-12-08T20:42:06.657Z,32.05
2022-12-08T20:44:47.575Z,32.50
2022-12-08T20:47:18.289Z,32.05
2022-12-08T20:49:49.412Z,53.45
2022-12-08T20:52:22.741Z,47.45
2022-12-08T20:54:59.444Z,36.30
2022-12-08T20:57:30.336Z,33.50
2022-12-08T21:00:00.814Z,37.38
2022-12-08T21:02:30.310Z,39.38
2022-12-08T21:05:00.107Z,36.38
2022-12-08T21:07:29.567Z,34.23
2022-12-08T21:09:58.833Z,30.77
2022-12-08T21:12:28.373Z,30.02
2022-12-08T21:14:57.715Z,30.05
2022-12-08T21:17:27.353Z,30.57
2022-12-08T21:19:56.956Z,30.92
2022-12-08T21:22:26.756Z,29.12
2022-12-08T21:24:56.047Z,30.25
2022-12-08T21:27:25.806Z,29.75
2022-12-08T21:29:55.251Z,34.35
2022-12-08T21:32:30.088Z,29.32
2022-12-08T21:34:58.038Z,30.75
2022-12-08T21:37:28.029Z,37.60
2022-12-08T21:39:58.184Z,31.50
2022-12-08T21:42:46.250Z,29.80
2022-12-08T21:45:18.476Z,30.05
2022-12-08T21:47:48.855Z,31.73
2022-12-08T21:50:19.260Z,32.13
2022-12-08T21:52:50.336Z,32.50
2022-12-08T21:55:20.363Z,33.55
2022-12-08T21:57:50.171Z,34.67
2022-12-08T22:00:20.665Z,31.95
2022-12-08T22:02:50.663Z,31.20
2022-12-08T22:05:20.593Z,28.87
2022-12-08T22:07:50.057Z,31.17
2022-12-08T22:10:21.214Z,35.92
2022-12-08T22:12:51.079Z,26.35
2022-12-08T22:15:20.514Z,26.23
2022-12-08T22:17:50.370Z,56.05
2022-12-08T22:20:19.792Z,25.65
2022-12-08T22:22:49.591Z,26.87
2022-12-08T22:25:18.826Z,26.57
2022-12-08T22:27:48.649Z,34.18
2022-12-08T22:30:18.021Z,39.50
2022-12-08T22:32:48.035Z,41.68
2022-12-08T22:35:17.475Z,43.33
2022-12-08T22:37:49.798Z,43.08
2022-12-08T22:40:19.525Z,43.20
2022-12-08T22:42:49.155Z,43.98
2022-12-08T22:45:18.399Z,43.40
2022-12-08T22:47:47.806Z,43.55
2022-12-08T22:50:17.301Z,43.75
2022-12-08T22:52:46.593Z,43.28
2022-12-08T22:55:15.820Z,43.13
2022-12-08T22:57:45.298Z,43.33
2022-12-08T23:00:15.242Z,44.60
2022-12-08T23:02:45.598Z,45.03
2022-12-08T23:05:15.277Z,44.20
2022-12-08T23:07:44.989Z,43.87
2022-12-08T23:10:14.593Z,43.42
2022-12-08T23:12:44.101Z,45.17
2022-12-08T23:15:13.433Z,43.48
2022-12-08T23:17:43.041Z,44.08
2022-12-08T23:20:13.427Z,44.50
2022-12-08T23:22:42.817Z,43.33
2022-12-08T23:25:12.572Z,44.77
2022-12-08T23:27:41.936Z,41.98
2022-12-08T23:30:12.679Z,43.33
2022-12-08T23:32:42.537Z,43.35
2022-12-08T23:35:12.266Z,43.30
2022-12-08T23:37:41.959Z,41.18
2022-12-08T23:40:12.805Z,42.65
2022-12-08T23:42:42.496Z,41.42
2022-12-08T23:45:13.003Z,41.18
2022-12-08T23:47:42.391Z,42.03
2022-12-08T23:50:13.234Z,43.33
2022-12-08T23:52:42.602Z,45.52
2022-12-08T23:55:12.688Z,44.77
2022-12-08T23:57:42.019Z,46.18
